sensor_id;sensor_type;location;lat;lon;timestamp;pressure;altitude;pressure_sealevel;temperature;humidity
15794;BME280;7999;51.208;4.244;2022-09-09T00:01:22;100765.63;;;13.88;100.00
15794;BME280;7999;51.208;4.244;2022-09-09T00:03:53;100768.13;;;13.95;99.78
15794;BME280;7999;51.208;4.244;2022-09-09T00:06:23;100762.88;;;13.98;99.68
15794;BME280;7999;51.208;4.244;2022-09-09T00:08:56;100767.25;;;13.97;99.58
15794;BME280;7999;51.208;4.244;2022-09-09T00:11:27;100767.22;;;13.99;99.37
15794;BME280;7999;51.208;4.244;2022-09-09T00:13:55;100769.94;;;13.91;99.31
15794;BME280;7999;51.208;4.244;2022-09-09T00:16:25;100775.38;;;13.77;100.00
15794;BME280;7999;51.208;4.244;2022-09-09T00:18:57;100765.75;;;13.79;100.00
15794;BME280;7999;51.208;4.244;2022-09-09T00:21:30;100768.28;;;13.85;100.00
15794;BME280;7999;51.208;4.244;2022-09-09T00:24:01;100756.25;;;13.75;100.00
15794;BME280;7999;51.208;4.244;2022-09-09T00:26:35;100757.13;;;13.74;100.00
15794;BME280;7999;51.208;4.244;2022-09-09T00:29:05;100756.09;;;13.84;100.00
15794;BME280;7999;51.208;4.244;2022-09-09T00:31:36;100755.16;;;13.88;100.00
15794;BME280;7999;51.208;4.244;2022-09-09T00:34:05;100756.13;;;13.83;100.00
15794;BME280;7999;51.208;4.244;2022-09-09T00:36:37;100756.09;;;13.84;100.00
15794;BME280;7999;51.208;4.244;2022-09-09T00:39:08;100749.09;;;13.86;100.00
15794;BME280;7999;51.208;4.244;2022-09-09T00:41:41;100752.50;;;13.91;99.49
15794;BME280;7999;51.208;4.244;2022-09-09T00:44:15;100750.72;;;13.93;99.50
15794;BME280;7999;51.208;4.244;2022-09-09T00:46:53;100747.22;;;13.98;98.84
15794;BME280;7999;51.208;4.244;2022-09-09T00:49:25;100741.16;;;13.92;99.10
15794;BME280;7999;51.208;4.244;2022-09-09T00:52:02;100744.75;;;13.85;99.32
15794;BME280;7999;51.208;4.244;2022-09-09T00:54:35;100741.28;;;13.85;99.49
15794;BME280;7999;51.208;4.244;2022-09-09T00:57:07;100735.16;;;13.87;99.41
15794;BME280;7999;51.208;4.244;2022-09-09T00:59:40;100733.41;;;13.86;99.25
15794;BME280;7999;51.208;4.244;2022-09-09T01:02:12;100720.28;;;13.91;99.25
15794;BME280;7999;51.208;4.244;2022-09-09T01:04:42;100720.25;;;13.92;99.01
15794;BME280;7999;51.208;4.244;2022-09-09T01:07:11;100725.59;;;13.85;99.41
15794;BME280;7999;51.208;4.244;2022-09-09T01:09:45;100714.25;;;13.87;99.16
15794;BME280;7999;51.208;4.244;2022-09-09T01:12:23;100729.09;;;13.85;98.93
15794;BME280;7999;51.208;4.244;2022-09-09T01:14:54;100716.13;;;13.79;99.09
15794;BME280;7999;51.208;4.244;2022-09-09T01:17:24;100716.00;;;13.85;98.95
15794;BME280;7999;51.208;4.244;2022-09-09T01:20:07;100713.38;;;13.87;98.78
15794;BME280;7999;51.208;4.244;2022-09-09T01:22:44;100709.00;;;13.87;98.39
15794;BME280;7999;51.208;4.244;2022-09-09T01:25:26;100708.25;;;13.81;98.63
15794;BME280;7999;51.208;4.244;2022-09-09T01:28:16;100699.53;;;13.82;98.51
15794;BME280;7999;51.208;4.244;2022-09-09T01:30:43;100693.50;;;13.78;98.54
15794;BME280;7999;51.208;4.244;2022-09-09T01:33:14;100693.53;;;13.75;99.08
15794;BME280;7999;51.208;4.244;2022-09-09T01:35:43;100683.16;;;13.72;99.19
15794;BME280;7999;51.208;4.244;2022-09-09T01:38:12;100689.25;;;13.71;98.92
15794;BME280;7999;51.208;4.244;2022-09-09T01:40:40;100679.50;;;13.82;98.45
15794;BME280;7999;51.208;4.244;2022-09-09T01:43:07;100675.31;;;13.72;98.77
15794;BME280;7999;51.208;4.244;2022-09-09T01:45:36;100677.06;;;13.72;98.68
15794;BME280;7999;51.208;4.244;2022-09-09T01:48:04;100681.50;;;13.65;98.75
15794;BME280;7999;51.208;4.244;2022-09-09T01:50:49;100679.69;;;13.70;98.46
15794;BME280;7999;51.208;4.244;2022-09-09T01:53:18;100683.97;;;13.74;98.52
15794;BME280;7999;51.208;4.244;2022-09-09T01:55:46;100674.53;;;13.64;98.82
15794;BME280;7999;51.208;4.244;2022-09-09T01:58:20;100678.88;;;13.65;98.98
15794;BME280;7999;51.208;4.244;2022-09-09T02:00:56;100676.38;;;13.59;99.43
15794;BME280;7999;51.208;4.244;2022-09-09T02:03:27;100678.84;;;13.70;99.10
15794;BME280;7999;51.208;4.244;2022-09-09T02:06:10;100666.72;;;13.63;99.49
15794;BME280;7999;51.208;4.244;2022-09-09T02:08:42;100667.50;;;13.69;99.13
15794;BME280;7999;51.208;4.244;2022-09-09T02:11:11;100672.75;;;13.66;99.31
15794;BME280;7999;51.208;4.244;2022-09-09T02:13:43;100659.63;;;13.72;99.17
15794;BME280;7999;51.208;4.244;2022-09-09T02:16:14;100669.25;;;13.70;99.10
15794;BME280;7999;51.208;4.244;2022-09-09T02:18:47;100673.50;;;13.76;99.11
15794;BME280;7999;51.208;4.244;2022-09-09T02:21:15;100670.97;;;13.71;99.32
15794;BME280;7999;51.208;4.244;2022-09-09T02:23:46;100671.78;;;13.75;99.12
15794;BME280;7999;51.208;4.244;2022-09-09T02:26:14;100671.84;;;13.70;99.73
15794;BME280;7999;51.208;4.244;2022-09-09T02:28:51;100673.44;;;13.79;99.21
15794;BME280;7999;51.208;4.244;2022-09-09T02:31:22;100674.50;;;13.67;100.00
15794;BME280;7999;51.208;4.244;2022-09-09T02:33:52;100660.53;;;13.71;99.94
15794;BME280;7999;51.208;4.244;2022-09-09T02:36:20;100656.97;;;13.75;99.40
15794;BME280;7999;51.208;4.244;2022-09-09T02:38:49;100663.03;;;13.77;99.57
15794;BME280;7999;51.208;4.244;2022-09-09T02:41:22;100664.09;;;13.64;100.00
15794;BME280;7999;51.208;4.244;2022-09-09T02:43:51;100667.53;;;13.66;100.00
15794;BME280;7999;51.208;4.244;2022-09-09T02:46:27;100657.03;;;13.72;99.88
15794;BME280;7999;51.208;4.244;2022-09-09T02:48:57;100655.25;;;13.74;99.86
15794;BME280;7999;51.208;4.244;2022-09-09T02:51:31;100662.25;;;13.69;100.00
15794;BME280;7999;51.208;4.244;2022-09-09T02:54:07;100652.63;;;13.74;100.00
15794;BME280;7999;51.208;4.244;2022-09-09T02:56:38;100645.72;;;13.72;100.00
15794;BME280;7999;51.208;4.244;2022-09-09T02:59:06;100645.72;;;13.70;100.00
15794;BME280;7999;51.208;4.244;2022-09-09T03:01:36;100648.34;;;13.70;100.00
15794;BME280;7999;51.208;4.244;2022-09-09T03:04:05;100653.53;;;13.73;100.00
15794;BME280;7999;51.208;4.244;2022-09-09T03:06:32;100641.25;;;13.78;100.00
15794;BME280;7999;51.208;4.244;2022-09-09T03:09:10;100642.78;;;13.88;100.00
15794;BME280;7999;51.208;4.244;2022-09-09T03:11:37;100640.19;;;13.88;100.00
15794;BME280;7999;51.208;4.244;2022-09-09T03:14:05;100631.34;;;13.97;100.00
15794;BME280;7999;51.208;4.244;2022-09-09T03:16:35;100625.97;;;14.05;99.68
15794;BME280;7999;51.208;4.244;2022-09-09T03:19:02;100635.50;;;14.07;99.60
15794;BME280;7999;51.208;4.244;2022-09-09T03:21:29;100631.91;;;14.13;99.28
15794;BME280;7999;51.208;4.244;2022-09-09T03:23:59;100638.94;;;14.11;99.19
15794;BME280;7999;51.208;4.244;2022-09-09T03:26:29;100645.84;;;14.13;99.27
15794;BME280;7999;51.208;4.244;2022-09-09T03:28:56;100642.44;;;14.10;99.62
15794;BME280;7999;51.208;4.244;2022-09-09T03:31:23;100632.78;;;14.13;99.58
15794;BME280;7999;51.208;4.244;2022-09-09T03:33:52;100634.63;;;14.08;99.72
15794;BME280;7999;51.208;4.244;2022-09-09T03:36:20;100626.66;;;14.14;99.38
15794;BME280;7999;51.208;4.244;2022-09-09T03:38:47;100633.69;;;14.11;99.71
15794;BME280;7999;51.208;4.244;2022-09-09T03:41:14;100634.50;;;14.14;99.45
15794;BME280;7999;51.208;4.244;2022-09-09T03:43:41;100635.53;;;14.06;99.95
15794;BME280;7999;51.208;4.244;2022-09-09T03:46:08;100636.38;;;14.08;100.00
15794;BME280;7999;51.208;4.244;2022-09-09T03:48:35;100630.31;;;14.06;99.71
15794;BME280;7999;51.208;4.244;2022-09-09T03:51:04;100630.31;;;14.06;99.57
15794;BME280;7999;51.208;4.244;2022-09-09T03:53:32;100627.63;;;14.09;99.43
15794;BME280;7999;51.208;4.244;2022-09-09T03:56:00;100634.63;;;14.08;99.25
15794;BME280;7999;51.208;4.244;2022-09-09T03:58:29;100624.84;;;14.18;98.77
15794;BME280;7999;51.208;4.244;2022-09-09T04:01:02;100622.38;;;14.10;98.86
15794;BME280;7999;51.208;4.244;2022-09-09T04:03:29;100615.41;;;14.11;98.90
15794;BME280;7999;51.208;4.244;2022-09-09T04:05:57;100617.25;;;14.06;99.21
15794;BME280;7999;51.208;4.244;2022-09-09T04:08:27;100612.78;;;14.11;99.01
15794;BME280;7999;51.208;4.244;2022-09-09T04:10:55;100605.84;;;14.10;98.95
15794;BME280;7999;51.208;4.244;2022-09-09T04:13:23;100605.94;;;14.04;98.90
15794;BME280;7999;51.208;4.244;2022-09-09T04:15:50;100604.09;;;14.09;98.92
15794;BME280;7999;51.208;4.244;2022-09-09T04:18:17;100597.22;;;14.05;98.77
15794;BME280;7999;51.208;4.244;2022-09-09T04:20:45;100598.09;;;14.05;98.67
15794;BME280;7999;51.208;4.244;2022-09-09T04:23:12;100579.69;;;14.10;98.68
15794;BME280;7999;51.208;4.244;2022-09-09T04:25:44;100593.78;;;14.03;98.92
15794;BME280;7999;51.208;4.244;2022-09-09T04:28:12;100593.00;;;13.96;99.25
15794;BME280;7999;51.208;4.244;2022-09-09T04:30:40;100593.84;;;14.00;99.33
15794;BME280;7999;51.208;4.244;2022-09-09T04:33:07;100581.53;;;14.05;98.71
15794;BME280;7999;51.208;4.244;2022-09-09T04:35:34;100591.25;;;13.98;99.31
15794;BME280;7999;51.208;4.244;2022-09-09T04:38:01;100599.09;;;13.97;99.27
15794;BME280;7999;51.208;4.244;2022-09-09T04:40:30;100593.84;;;14.00;99.26
15794;BME280;7999;51.208;4.244;2022-09-09T04:42:59;100596.50;;;13.95;99.65
15794;BME280;7999;51.208;4.244;2022-09-09T04:45:26;100588.69;;;13.93;99.81
15794;BME280;7999;51.208;4.244;2022-09-09T04:47:53;100588.69;;;13.93;99.76
15794;BME280;7999;51.208;4.244;2022-09-09T04:50:21;100598.25;;;13.95;99.83
15794;BME280;7999;51.208;4.244;2022-09-09T04:52:49;100588.63;;;13.97;99.87
15794;BME280;7999;51.208;4.244;2022-09-09T04:55:16;100581.59;;;14.02;99.58
15794;BME280;7999;51.208;4.244;2022-09-09T04:57:43;100586.88;;;13.99;99.26
15794;BME280;7999;51.208;4.244;2022-09-09T05:00:13;100588.59;;;14.00;99.56
15794;BME280;7999;51.208;4.244;2022-09-09T05:02:40;100588.69;;;13.93;99.99
15794;BME280;7999;51.208;4.244;2022-09-09T05:05:07;100595.69;;;13.91;100.00
15794;BME280;7999;51.208;4.244;2022-09-09T05:07:36;100599.94;;;13.99;99.90
15794;BME280;7999;51.208;4.244;2022-09-09T05:10:03;100596.44;;;14.00;99.81
15794;BME280;7999;51.208;4.244;2022-09-09T05:12:33;100605.13;;;14.02;99.44
15794;BME280;7999;51.208;4.244;2022-09-09T05:15:00;100595.63;;;13.98;99.96
15794;BME280;7999;51.208;4.244;2022-09-09T05:17:30;100600.72;;;14.04;99.94
15794;BME280;7999;51.208;4.244;2022-09-09T05:19:57;100600.47;;;14.16;99.20
15794;BME280;7999;51.208;4.244;2022-09-09T05:22:24;100596.91;;;14.20;99.09
15794;BME280;7999;51.208;4.244;2022-09-09T05:24:52;100601.25;;;14.21;99.06
15794;BME280;7999;51.208;4.244;2022-09-09T05:27:19;100592.41;;;14.30;98.51
15794;BME280;7999;51.208;4.244;2022-09-09T05:29:47;100584.44;;;14.34;97.92
15794;BME280;7999;51.208;4.244;2022-09-09T05:32:14;100589.69;;;14.34;98.25
15794;BME280;7999;51.208;4.244;2022-09-09T05:34:47;100585.25;;;14.38;97.49
15794;BME280;7999;51.208;4.244;2022-09-09T05:37:14;100584.31;;;14.40;97.59
15794;BME280;7999;51.208;4.244;2022-09-09T05:39:42;100577.13;;;14.51;96.84
15794;BME280;7999;51.208;4.244;2022-09-09T05:42:09;100582.28;;;14.58;96.70
15794;BME280;7999;51.208;4.244;2022-09-09T05:44:35;100574.31;;;14.62;96.81
15794;BME280;7999;51.208;4.244;2022-09-09T05:47:02;100566.53;;;14.59;96.03
15794;BME280;7999;51.208;4.244;2022-09-09T05:49:29;100577.06;;;14.56;96.59
15794;BME280;7999;51.208;4.244;2022-09-09T05:51:57;100573.53;;;14.59;96.26
15794;BME280;7999;51.208;4.244;2022-09-09T05:54:24;100568.38;;;14.56;96.59
15794;BME280;7999;51.208;4.244;2022-09-09T05:56:53;100568.47;;;14.49;96.90
15794;BME280;7999;51.208;4.244;2022-09-09T05:59:20;100570.09;;;14.57;96.29
15794;BME280;7999;51.208;4.244;2022-09-09T06:01:50;100562.28;;;14.55;96.25
15794;BME280;7999;51.208;4.244;2022-09-09T06:04:32;100567.19;;;14.69;95.78
15794;BME280;7999;51.208;4.244;2022-09-09T06:07:01;100565.25;;;14.77;95.54
15794;BME280;7999;51.208;4.244;2022-09-09T06:09:28;100574.84;;;14.78;95.28
15794;BME280;7999;51.208;4.244;2022-09-09T06:11:56;100573.03;;;14.81;94.69
15794;BME280;7999;51.208;4.244;2022-09-09T06:14:23;100571.28;;;14.82;94.86
15794;BME280;7999;51.208;4.244;2022-09-09T06:16:51;100578.25;;;14.83;94.67
15794;BME280;7999;51.208;4.244;2022-09-09T06:19:21;100569.66;;;14.75;94.92
15794;BME280;7999;51.208;4.244;2022-09-09T06:21:54;100576.53;;;14.82;94.11
15794;BME280;7999;51.208;4.244;2022-09-09T06:24:22;100569.66;;;14.75;94.68
15794;BME280;7999;51.208;4.244;2022-09-09T06:26:49;100569.56;;;14.81;94.39
15794;BME280;7999;51.208;4.244;2022-09-09T06:29:23;100578.25;;;14.83;93.84
15794;BME280;7999;51.208;4.244;2022-09-09T06:31:51;100574.66;;;14.87;93.87
15794;BME280;7999;51.208;4.244;2022-09-09T06:34:22;100571.31;;;14.79;94.32
15794;BME280;7999;51.208;4.244;2022-09-09T06:36:53;100572.88;;;14.89;93.85
15794;BME280;7999;51.208;4.244;2022-09-09T06:39:21;100570.72;;;15.06;92.97
15794;BME280;7999;51.208;4.244;2022-09-09T06:41:49;100571.97;;;15.27;92.03
15794;BME280;7999;51.208;4.244;2022-09-09T06:44:37;100573.72;;;15.27;91.74
15794;BME280;7999;51.208;4.244;2022-09-09T06:47:07;100573.66;;;15.30;92.11
15794;BME280;7999;51.208;4.244;2022-09-09T06:49:38;100575.50;;;15.26;92.26
15794;BME280;7999;51.208;4.244;2022-09-09T06:52:08;100565.94;;;15.24;91.89
15794;BME280;7999;51.208;4.244;2022-09-09T06:54:35;100554.81;;;15.15;91.40
15794;BME280;7999;51.208;4.244;2022-09-09T06:57:04;100555.06;;;15.40;91.01
15794;BME280;7999;51.208;4.244;2022-09-09T06:59:33;100555.34;;;15.65;89.93
15794;BME280;7999;51.208;4.244;2022-09-09T07:02:00;100550.50;;;16.15;87.19
15794;BME280;7999;51.208;4.244;2022-09-09T07:04:28;100555.03;;;15.77;89.84
15794;BME280;7999;51.208;4.244;2022-09-09T07:06:54;100557.31;;;15.56;91.33
15794;BME280;7999;51.208;4.244;2022-09-09T07:09:23;100566.84;;;15.23;94.69
15794;BME280;7999;51.208;4.244;2022-09-09T07:11:51;100567.06;;;15.13;95.38
15794;BME280;7999;51.208;4.244;2022-09-09T07:14:21;100563.63;;;15.11;95.44
15794;BME280;7999;51.208;4.244;2022-09-09T07:16:55;100570.66;;;15.09;95.35
15794;BME280;7999;51.208;4.244;2022-09-09T07:19:23;100563.47;;;15.18;95.28
15794;BME280;7999;51.208;4.244;2022-09-09T07:21:52;100569.44;;;15.24;95.16
15794;BME280;7999;51.208;4.244;2022-09-09T07:24:21;100561.47;;;15.29;93.70
15794;BME280;7999;51.208;4.244;2022-09-09T07:26:48;100557.84;;;15.33;93.41
15794;BME280;7999;51.208;4.244;2022-09-09T07:29:15;100565.34;;;15.48;92.87
15794;BME280;7999;51.208;4.244;2022-09-09T07:31:44;100560.94;;;15.50;92.84
15794;BME280;7999;51.208;4.244;2022-09-09T07:34:16;100559.00;;;15.58;92.47
15794;BME280;7999;51.208;4.244;2022-09-09T07:36:44;100550.72;;;16.07;90.21
15794;BME280;7999;51.208;4.244;2022-09-09T07:39:12;100559.56;;;16.95;85.54
15794;BME280;7999;51.208;4.244;2022-09-09T07:41:44;100560.66;;;17.16;84.11
15794;BME280;7999;51.208;4.244;2022-09-09T07:44:13;100551.56;;;16.99;84.12
15794;BME280;7999;51.208;4.244;2022-09-09T07:46:41;100554.28;;;16.67;86.20
15794;BME280;7999;51.208;4.244;2022-09-09T07:49:11;100564.19;;;16.26;87.35
15794;BME280;7999;51.208;4.244;2022-09-09T07:51:38;100563.59;;;16.48;89.46
15794;BME280;7999;51.208;4.244;2022-09-09T07:54:08;100559.53;;;16.36;88.73
15794;BME280;7999;51.208;4.244;2022-09-09T07:56:37;100562.63;;;16.50;89.38
15794;BME280;7999;51.208;4.244;2022-09-09T07:59:05;100566.31;;;16.45;89.14
15794;BME280;7999;51.208;4.244;2022-09-09T08:01:34;100561.34;;;16.03;87.74
15794;BME280;7999;51.208;4.244;2022-09-09T08:04:05;100573.22;;;16.16;89.62
15794;BME280;7999;51.208;4.244;2022-09-09T08:06:34;100567.28;;;16.10;89.78
15794;BME280;7999;51.208;4.244;2022-09-09T08:09:02;100563.16;;;16.01;88.38
15794;BME280;7999;51.208;4.244;2022-09-09T08:11:30;100570.28;;;16.58;88.60
15794;BME280;7999;51.208;4.244;2022-09-09T08:13:58;100575.63;;;16.55;86.92
15794;BME280;7999;51.208;4.244;2022-09-09T08:16:26;100572.00;;;16.59;87.48
15794;BME280;7999;51.208;4.244;2022-09-09T08:18:54;100575.16;;;16.41;87.51
15794;BME280;7999;51.208;4.244;2022-09-09T08:21:21;100574.00;;;16.51;87.11
15794;BME280;7999;51.208;4.244;2022-09-09T08:23:51;100574.31;;;16.71;86.69
15794;BME280;7999;51.208;4.244;2022-09-09T08:26:19;100574.78;;;16.84;85.74
15794;BME280;7999;51.208;4.244;2022-09-09T08:28:47;100574.28;;;17.01;83.98
15794;BME280;7999;51.208;4.244;2022-09-09T08:31:15;100574.44;;;16.94;84.93
15794;BME280;7999;51.208;4.244;2022-09-09T08:33:42;100576.09;;;16.69;85.17
15794;BME280;7999;51.208;4.244;2022-09-09T08:36:12;100589.22;;;16.69;85.40
15794;BME280;7999;51.208;4.244;2022-09-09T08:38:41;100587.66;;;16.62;85.08
15794;BME280;7999;51.208;4.244;2022-09-09T08:44:03;100588.16;;;16.45;85.80
15794;BME280;7999;51.208;4.244;2022-09-09T08:47:33;100591.88;;;16.36;85.77
15794;BME280;7999;51.208;4.244;2022-09-09T08:50:07;100598.06;;;16.34;85.87
15794;BME280;7999;51.208;4.244;2022-09-09T08:52:41;100582.06;;;16.12;87.78
15794;BME280;7999;51.208;4.244;2022-09-09T08:55:18;100591.59;;;16.16;88.61
15794;BME280;7999;51.208;4.244;2022-09-09T08:57:48;100600.09;;;16.24;88.68
15794;BME280;7999;51.208;4.244;2022-09-09T09:00:18;100601.50;;;16.05;88.20
15794;BME280;7999;51.208;4.244;2022-09-09T09:02:46;100600.66;;;16.03;88.79
15794;BME280;7999;51.208;4.244;2022-09-09T09:05:19;100608.72;;;15.97;89.44
15794;BME280;7999;51.208;4.244;2022-09-09T09:07:54;100601.91;;;15.90;90.51
15794;BME280;7999;51.208;4.244;2022-09-09T09:10:34;100604.50;;;15.91;89.47
15794;BME280;7999;51.208;4.244;2022-09-09T09:13:07;100607.88;;;15.95;90.28
15794;BME280;7999;51.208;4.244;2022-09-09T09:15:40;100609.59;;;15.96;90.07
15794;BME280;7999;51.208;4.244;2022-09-09T09:18:08;100613.94;;;15.97;90.28
15794;BME280;7999;51.208;4.244;2022-09-09T09:20:41;100612.44;;;15.87;90.17
15794;BME280;7999;51.208;4.244;2022-09-09T09:23:12;100614.16;;;15.89;90.98
15794;BME280;7999;51.208;4.244;2022-09-09T09:25:42;100625.50;;;15.88;90.71
15794;BME280;7999;51.208;4.244;2022-09-09T09:28:13;100615.38;;;15.74;90.98
15794;BME280;7999;51.208;4.244;2022-09-09T09:30:48;100608.44;;;15.73;90.40
15794;BME280;7999;51.208;4.244;2022-09-09T09:33:20;100618.09;;;15.71;90.80
15794;BME280;7999;51.208;4.244;2022-09-09T09:35:49;100624.81;;;15.82;90.43
15794;BME280;7999;51.208;4.244;2022-09-09T09:38:18;100621.22;;;15.86;90.78
15794;BME280;7999;51.208;4.244;2022-09-09T09:40:49;100618.53;;;15.89;90.39
15794;BME280;7999;51.208;4.244;2022-09-09T09:43:21;100621.22;;;15.86;90.70
15794;BME280;7999;51.208;4.244;2022-09-09T09:45:52;100627.28;;;15.88;91.08
15794;BME280;7999;51.208;4.244;2022-09-09T09:48:20;100625.75;;;15.79;91.02
15794;BME280;7999;51.208;4.244;2022-09-09T09:50:49;100617.84;;;15.81;91.06
15794;BME280;7999;51.208;4.244;2022-09-09T09:53:18;100633.16;;;15.63;92.68
15794;BME280;7999;51.208;4.244;2022-09-09T09:55:48;100637.50;;;15.64;93.88
15794;BME280;7999;51.208;4.244;2022-09-09T09:58:17;100638.34;;;15.65;94.14
15794;BME280;7999;51.208;4.244;2022-09-09T10:00:47;100639.13;;;15.68;94.48
15794;BME280;7999;51.208;4.244;2022-09-09T10:03:21;100632.22;;;15.66;94.47
15794;BME280;7999;51.208;4.244;2022-09-09T10:05:49;100630.97;;;15.81;94.19
15794;BME280;7999;51.208;4.244;2022-09-09T10:08:17;100622.31;;;16.11;93.03
15794;BME280;7999;51.208;4.244;2022-09-09T10:10:48;100621.47;;;16.42;91.40
15794;BME280;7999;51.208;4.244;2022-09-09T10:13:19;100632.53;;;16.53;90.70
15794;BME280;7999;51.208;4.244;2022-09-09T10:15:52;100635.72;;;16.64;89.89
15794;BME280;7999;51.208;4.244;2022-09-09T10:18:36;100642.28;;;16.49;88.74
15794;BME280;7999;51.208;4.244;2022-09-09T10:21:08;100630.69;;;16.56;88.54
15794;BME280;7999;51.208;4.244;2022-09-09T10:23:42;100639.19;;;16.64;88.15
15794;BME280;7999;51.208;4.244;2022-09-09T10:26:18;100644.25;;;16.74;87.94
15794;BME280;7999;51.208;4.244;2022-09-09T10:28:56;100652.88;;;16.77;88.95
15794;BME280;7999;51.208;4.244;2022-09-09T10:31:30;100652.59;;;16.86;87.64
15794;BME280;7999;51.208;4.244;2022-09-09T10:34:04;100659.66;;;16.84;86.35
15794;BME280;7999;51.208;4.244;2022-09-09T10:36:33;100655.22;;;16.86;87.37
15794;BME280;7999;51.208;4.244;2022-09-09T10:39:02;100648.06;;;16.91;86.26
15794;BME280;7999;51.208;4.244;2022-09-09T10:41:42;100646.16;;;16.96;86.61
15794;BME280;7999;51.208;4.244;2022-09-09T10:46:57;100649.16;;;16.84;86.21
15794;BME280;7999;51.208;4.244;2022-09-09T10:49:30;100649.44;;;17.05;85.98
15794;BME280;7999;51.208;4.244;2022-09-09T10:52:03;100641.28;;;17.14;85.11
15794;BME280;7999;51.208;4.244;2022-09-09T10:54:35;100649.94;;;17.45;84.29
15794;BME280;7999;51.208;4.244;2022-09-09T10:57:08;100645.69;;;17.41;82.74
15794;BME280;7999;51.208;4.244;2022-09-09T10:59:40;100653.50;;;17.43;83.13
15794;BME280;7999;51.208;4.244;2022-09-09T11:02:11;100646.78;;;17.62;82.56
15794;BME280;7999;51.208;4.244;2022-09-09T11:05:17;100636.13;;;17.93;82.30
15794;BME280;7999;51.208;4.244;2022-09-09T11:07:47;100644.88;;;17.67;81.54
15794;BME280;7999;51.208;4.244;2022-09-09T11:10:19;100634.53;;;17.89;80.53
15794;BME280;7999;51.208;4.244;2022-09-09T11:12:48;100635.19;;;18.20;78.64
15794;BME280;7999;51.208;4.244;2022-09-09T11:15:18;100642.31;;;18.17;78.47
15794;BME280;7999;51.208;4.244;2022-09-09T11:17:47;100653.19;;;18.06;78.87
15794;BME280;7999;51.208;4.244;2022-09-09T11:20:17;100657.50;;;17.84;78.75
15794;BME280;7999;51.208;4.244;2022-09-09T11:22:45;100657.06;;;17.96;80.11
15794;BME280;7999;51.208;4.244;2022-09-09T11:25:15;100657.84;;;18.25;79.01
15794;BME280;7999;51.208;4.244;2022-09-09T11:27:44;100660.88;;;18.39;77.14
15794;BME280;7999;51.208;4.244;2022-09-09T11:30:18;100649.88;;;18.76;77.20
15794;BME280;7999;51.208;4.244;2022-09-09T11:32:50;100650.81;;;18.98;75.21
15794;BME280;7999;51.208;4.244;2022-09-09T11:35:26;100649.13;;;19.19;74.94
15794;BME280;7999;51.208;4.244;2022-09-09T11:38:02;100647.88;;;18.82;75.27
15794;BME280;7999;51.208;4.244;2022-09-09T11:40:35;100651.59;;;18.52;74.48
15794;BME280;7999;51.208;4.244;2022-09-09T11:43:03;100662.44;;;18.93;75.13
15794;BME280;7999;51.208;4.244;2022-09-09T11:45:31;100659.19;;;19.31;73.09
15794;BME280;7999;51.208;4.244;2022-09-09T11:48:01;100665.09;;;19.60;71.63
15794;BME280;7999;51.208;4.244;2022-09-09T11:50:33;100657.84;;;19.87;71.68
15794;BME280;7999;51.208;4.244;2022-09-09T11:55:58;100665.97;;;19.82;72.24
15794;BME280;7999;51.208;4.244;2022-09-09T11:58:27;100654.47;;;19.83;70.22
15794;BME280;7999;51.208;4.244;2022-09-09T12:00:57;100655.16;;;19.88;70.12
15794;BME280;7999;51.208;4.244;2022-09-09T12:03:34;100658.72;;;19.87;70.13
15794;BME280;7999;51.208;4.244;2022-09-09T12:06:10;100657.38;;;19.77;70.70
15794;BME280;7999;51.208;4.244;2022-09-09T12:08:39;100668.03;;;19.52;69.90
15794;BME280;7999;51.208;4.244;2022-09-09T12:11:08;100671.81;;;19.00;71.61
15794;BME280;7999;51.208;4.244;2022-09-09T12:13:35;100661.22;;;19.47;70.99
15794;BME280;7999;51.208;4.244;2022-09-09T12:16:01;100662.25;;;19.86;69.57
15794;BME280;7999;51.208;4.244;2022-09-09T12:18:32;100671.22;;;19.82;70.54
15794;BME280;7999;51.208;4.244;2022-09-09T12:21:02;100664.28;;;20.22;68.10
15794;BME280;7999;51.208;4.244;2022-09-09T12:23:39;100658.31;;;19.96;70.06
15794;BME280;7999;51.208;4.244;2022-09-09T12:26:12;100676.19;;;19.68;69.41
15794;BME280;7999;51.208;4.244;2022-09-09T12:28:46;100687.84;;;19.17;71.21
15794;BME280;7999;51.208;4.244;2022-09-09T12:31:17;100681.22;;;19.07;71.85
15794;BME280;7999;51.208;4.244;2022-09-09T12:33:48;100671.41;;;19.10;72.60
15794;BME280;7999;51.208;4.244;2022-09-09T12:36:18;100675.84;;;19.32;71.19
15794;BME280;7999;51.208;4.244;2022-09-09T12:38:47;100668.50;;;19.18;71.27
15794;BME280;7999;51.208;4.244;2022-09-09T12:41:18;100673.38;;;19.51;71.72
15794;BME280;7999;51.208;4.244;2022-09-09T12:43:45;100665.34;;;19.54;70.82
15794;BME280;7999;51.208;4.244;2022-09-09T12:46:14;100663.09;;;20.29;69.33
15794;BME280;7999;51.208;4.244;2022-09-09T12:48:48;100663.19;;;20.87;67.44
15794;BME280;7999;51.208;4.244;2022-09-09T12:51:17;100669.31;;;21.06;67.33
15794;BME280;7999;51.208;4.244;2022-09-09T12:53:46;100669.47;;;21.03;67.17
15794;BME280;7999;51.208;4.244;2022-09-09T12:56:18;100664.31;;;21.00;65.08
15794;BME280;7999;51.208;4.244;2022-09-09T12:58:46;100660.94;;;20.78;66.28
15794;BME280;7999;51.208;4.244;2022-09-09T13:01:18;100656.56;;;20.58;67.79
15794;BME280;7999;51.208;4.244;2022-09-09T13:03:48;100658.09;;;20.43;67.73
15794;BME280;7999;51.208;4.244;2022-09-09T13:06:18;100654.56;;;20.22;67.64
15794;BME280;7999;51.208;4.244;2022-09-09T13:08:49;100665.31;;;20.18;67.95
15794;BME280;7999;51.208;4.244;2022-09-09T13:11:17;100672.84;;;20.06;68.91
15794;BME280;7999;51.208;4.244;2022-09-09T13:13:50;100674.41;;;19.90;69.07
15794;BME280;7999;51.208;4.244;2022-09-09T13:16:20;100674.13;;;19.96;68.43
15794;BME280;7999;51.208;4.244;2022-09-09T13:18:48;100674.38;;;20.12;69.01
15794;BME280;7999;51.208;4.244;2022-09-09T13:21:16;100663.34;;;20.23;67.66
15794;BME280;7999;51.208;4.244;2022-09-09T13:23:47;100661.81;;;20.17;66.90
15794;BME280;7999;51.208;4.244;2022-09-09T13:26:23;100666.53;;;20.51;67.15